sensor_id;sensor_type;location;lat;lon;timestamp;P1;durP1;ratioP1;P2;durP2;ratioP2
66669;SDS011;53568;52.164;4.472;2022-12-07T00:01:11;3.85;;;2.44;;
66669;SDS011;53568;52.164;4.472;2022-12-07T00:03:42;3.97;;;2.52;;
66669;SDS011;53568;52.164;4.472;2022-12-07T00:06:10;4.41;;;2.81;;
66669;SDS011;53568;52.164;4.472;2022-12-07T00:08:37;3.97;;;2.49;;
66669;SDS011;53568;52.164;4.472;2022-12-07T00:11:03;3.54;;;2.22;;
66669;SDS011;53568;52.164;4.472;2022-12-07T00:13:31;3.98;;;2.46;;
66669;SDS011;53568;52.164;4.472;2022-12-07T00:16:02;2.78;;;1.69;;
66669;SDS011;53568;52.164;4.472;2022-12-07T00:18:29;2.84;;;1.73;;
66669;SDS011;53568;52.164;4.472;2022-12-07T00:21:02;2.63;;;1.58;;
66669;SDS011;53568;52.164;4.472;2022-12-07T00:23:30;2.06;;;1.24;;
66669;SDS011;53568;52.164;4.472;2022-12-07T00:26:02;1.84;;;1.10;;
66669;SDS011;53568;52.164;4.472;2022-12-07T00:28:40;2.37;;;1.42;;
66669;SDS011;53568;52.164;4.472;2022-12-07T00:31:07;1.85;;;1.10;;
66669;SDS011;53568;52.164;4.472;2022-12-07T00:33:35;3.01;;;1.78;;
66669;SDS011;53568;52.164;4.472;2022-12-07T00:36:02;3.72;;;2.21;;
66669;SDS011;53568;52.164;4.472;2022-12-07T00:38:32;3.91;;;2.32;;
66669;SDS011;53568;52.164;4.472;2022-12-07T00:41:04;3.12;;;1.83;;
66669;SDS011;53568;52.164;4.472;2022-12-07T00:43:32;2.56;;;1.51;;
66669;SDS011;53568;52.164;4.472;2022-12-07T00:45:58;2.93;;;1.72;;
66669;SDS011;53568;52.164;4.472;2022-12-07T00:48:24;2.41;;;1.42;;
66669;SDS011;53568;52.164;4.472;2022-12-07T00:50:50;2.15;;;1.27;;
66669;SDS011;53568;52.164;4.472;2022-12-07T00:53:18;2.75;;;1.61;;
66669;SDS011;53568;52.164;4.472;2022-12-07T00:55:44;3.01;;;1.76;;
66669;SDS011;53568;52.164;4.472;2022-12-07T00:58:10;3.29;;;1.91;;
66669;SDS011;53568;52.164;4.472;2022-12-07T01:00:36;3.43;;;1.97;;
66669;SDS011;53568;52.164;4.472;2022-12-07T01:03:04;3.40;;;1.96;;
66669;SDS011;53568;52.164;4.472;2022-12-07T01:05:31;4.07;;;2.35;;
66669;SDS011;53568;52.164;4.472;2022-12-07T01:07:57;5.05;;;2.90;;
66669;SDS011;53568;52.164;4.472;2022-12-07T01:10:22;3.62;;;2.09;;
66669;SDS011;53568;52.164;4.472;2022-12-07T01:12:48;3.61;;;2.10;;
66669;SDS011;53568;52.164;4.472;2022-12-07T01:15:14;3.78;;;2.19;;
66669;SDS011;53568;52.164;4.472;2022-12-07T01:17:39;2.82;;;1.62;;
66669;SDS011;53568;52.164;4.472;2022-12-07T01:20:05;3.61;;;2.06;;
66669;SDS011;53568;52.164;4.472;2022-12-07T01:22:35;3.29;;;1.87;;
66669;SDS011;53568;52.164;4.472;2022-12-07T01:25:02;3.47;;;1.98;;
66669;SDS011;53568;52.164;4.472;2022-12-07T01:27:28;3.35;;;1.92;;
66669;SDS011;53568;52.164;4.472;2022-12-07T01:29:53;4.14;;;2.37;;
66669;SDS011;53568;52.164;4.472;2022-12-07T01:32:19;4.15;;;2.37;;
66669;SDS011;53568;52.164;4.472;2022-12-07T01:34:47;3.90;;;2.24;;
66669;SDS011;53568;52.164;4.472;2022-12-07T01:37:13;4.15;;;2.40;;
66669;SDS011;53568;52.164;4.472;2022-12-07T01:39:38;3.90;;;2.25;;
66669;SDS011;53568;52.164;4.472;2022-12-07T01:42:04;4.22;;;2.44;;
66669;SDS011;53568;52.164;4.472;2022-12-07T01:44:30;4.25;;;2.46;;
66669;SDS011;53568;52.164;4.472;2022-12-07T01:46:57;3.63;;;2.11;;
66669;SDS011;53568;52.164;4.472;2022-12-07T01:51:56;4.29;;;2.48;;
66669;SDS011;53568;52.164;4.472;2022-12-07T01:54:28;4.33;;;2.52;;
66669;SDS011;53568;52.164;4.472;2022-12-07T01:56:54;4.05;;;2.36;;
66669;SDS011;53568;52.164;4.472;2022-12-07T01:59:23;4.32;;;2.52;;
66669;SDS011;53568;52.164;4.472;2022-12-07T02:01:52;4.16;;;2.43;;
66669;SDS011;53568;52.164;4.472;2022-12-07T02:04:22;3.87;;;2.27;;
66669;SDS011;53568;52.164;4.472;2022-12-07T02:06:48;3.90;;;2.30;;
66669;SDS011;53568;52.164;4.472;2022-12-07T02:09:16;3.40;;;2.01;;
66669;SDS011;53568;52.164;4.472;2022-12-07T02:11:41;3.67;;;2.17;;
66669;SDS011;53568;52.164;4.472;2022-12-07T02:14:07;5.00;;;2.91;;
66669;SDS011;53568;52.164;4.472;2022-12-07T02:21:56;5.25;;;3.07;;
66669;SDS011;53568;52.164;4.472;2022-12-07T02:32:35;4.95;;;2.91;;
66669;SDS011;53568;52.164;4.472;2022-12-07T02:38:06;5.14;;;2.99;;
66669;SDS011;53568;52.164;4.472;2022-12-07T02:41:20;6.04;;;3.49;;
66669;SDS011;53568;52.164;4.472;2022-12-07T02:43:47;5.25;;;3.07;;
66669;SDS011;53568;52.164;4.472;2022-12-07T02:46:22;4.96;;;2.92;;
66669;SDS011;53568;52.164;4.472;2022-12-07T02:48:53;5.58;;;3.30;;
66669;SDS011;53568;52.164;4.472;2022-12-07T02:51:21;4.56;;;2.70;;
66669;SDS011;53568;52.164;4.472;2022-12-07T02:53:47;4.88;;;2.88;;
66669;SDS011;53568;52.164;4.472;2022-12-07T02:59:14;5.55;;;3.25;;
66669;SDS011;53568;52.164;4.472;2022-12-07T03:15:29;4.42;;;2.56;;
66669;SDS011;53568;52.164;4.472;2022-12-07T03:18:21;4.75;;;2.76;;
66669;SDS011;53568;52.164;4.472;2022-12-07T03:20:51;3.74;;;2.20;;
66669;SDS011;53568;52.164;4.472;2022-12-07T03:23:23;4.09;;;2.39;;
66669;SDS011;53568;52.164;4.472;2022-12-07T03:25:52;4.29;;;2.50;;
66669;SDS011;53568;52.164;4.472;2022-12-07T03:28:24;4.45;;;2.58;;
66669;SDS011;53568;52.164;4.472;2022-12-07T03:30:58;4.40;;;2.57;;
66669;SDS011;53568;52.164;4.472;2022-12-07T03:33:40;5.02;;;2.94;;
66669;SDS011;53568;52.164;4.472;2022-12-07T03:36:22;4.40;;;2.62;;
66669;SDS011;53568;52.164;4.472;2022-12-07T03:39:14;4.84;;;2.87;;
66669;SDS011;53568;52.164;4.472;2022-12-07T03:41:48;4.93;;;2.93;;
66669;SDS011;53568;52.164;4.472;2022-12-07T03:44:15;6.04;;;3.59;;
66669;SDS011;53568;52.164;4.472;2022-12-07T03:46:43;4.90;;;2.90;;
66669;SDS011;53568;52.164;4.472;2022-12-07T03:49:18;5.90;;;3.50;;
66669;SDS011;53568;52.164;4.472;2022-12-07T03:52:00;5.07;;;3.03;;
66669;SDS011;53568;52.164;4.472;2022-12-07T03:54:38;5.46;;;3.25;;
66669;SDS011;53568;52.164;4.472;2022-12-07T03:57:10;5.87;;;3.43;;
66669;SDS011;53568;52.164;4.472;2022-12-07T03:59:38;5.58;;;3.27;;
66669;SDS011;53568;52.164;4.472;2022-12-07T04:02:06;5.19;;;3.06;;
66669;SDS011;53568;52.164;4.472;2022-12-07T04:04:32;4.86;;;2.89;;
66669;SDS011;53568;52.164;4.472;2022-12-07T04:06:59;4.50;;;2.68;;
66669;SDS011;53568;52.164;4.472;2022-12-07T04:09:25;3.55;;;2.10;;
66669;SDS011;53568;52.164;4.472;2022-12-07T04:11:51;3.38;;;1.98;;
66669;SDS011;53568;52.164;4.472;2022-12-07T04:14:16;2.72;;;1.59;;
66669;SDS011;53568;52.164;4.472;2022-12-07T04:16:49;2.60;;;1.53;;
66669;SDS011;53568;52.164;4.472;2022-12-07T04:19:22;3.00;;;1.76;;
66669;SDS011;53568;52.164;4.472;2022-12-07T04:21:52;2.59;;;1.52;;
66669;SDS011;53568;52.164;4.472;2022-12-07T04:24:18;2.92;;;1.72;;
66669;SDS011;53568;52.164;4.472;2022-12-07T04:26:44;3.53;;;2.10;;
66669;SDS011;53568;52.164;4.472;2022-12-07T04:29:11;4.21;;;2.51;;
66669;SDS011;53568;52.164;4.472;2022-12-07T04:31:39;4.32;;;2.57;;
66669;SDS011;53568;52.164;4.472;2022-12-07T04:34:05;4.72;;;2.80;;
66669;SDS011;53568;52.164;4.472;2022-12-07T04:36:32;4.77;;;2.85;;
66669;SDS011;53568;52.164;4.472;2022-12-07T04:38:57;4.79;;;2.88;;
66669;SDS011;53568;52.164;4.472;2022-12-07T04:41:23;5.28;;;3.17;;
66669;SDS011;53568;52.164;4.472;2022-12-07T04:44:02;6.12;;;3.59;;
66669;SDS011;53568;52.164;4.472;2022-12-07T04:46:30;5.26;;;3.10;;
66669;SDS011;53568;52.164;4.472;2022-12-07T04:48:56;5.41;;;3.18;;
66669;SDS011;53568;52.164;4.472;2022-12-07T04:51:24;5.46;;;3.17;;
66669;SDS011;53568;52.164;4.472;2022-12-07T04:53:51;5.25;;;3.05;;
66669;SDS011;53568;52.164;4.472;2022-12-07T04:56:17;4.34;;;2.55;;
66669;SDS011;53568;52.164;4.472;2022-12-07T04:58:43;5.03;;;2.97;;
66669;SDS011;53568;52.164;4.472;2022-12-07T05:01:10;4.53;;;2.67;;
66669;SDS011;53568;52.164;4.472;2022-12-07T05:03:36;5.43;;;3.24;;
66669;SDS011;53568;52.164;4.472;2022-12-07T05:06:03;5.35;;;3.24;;
66669;SDS011;53568;52.164;4.472;2022-12-07T05:08:29;5.77;;;3.48;;
66669;SDS011;53568;52.164;4.472;2022-12-07T05:10:55;5.73;;;3.46;;
66669;SDS011;53568;52.164;4.472;2022-12-07T05:13:20;5.56;;;3.35;;
66669;SDS011;53568;52.164;4.472;2022-12-07T05:15:46;6.73;;;4.01;;
66669;SDS011;53568;52.164;4.472;2022-12-07T05:18:12;6.25;;;3.72;;
66669;SDS011;53568;52.164;4.472;2022-12-07T05:20:38;6.18;;;3.68;;
66669;SDS011;53568;52.164;4.472;2022-12-07T05:23:04;6.76;;;4.03;;
66669;SDS011;53568;52.164;4.472;2022-12-07T05:25:30;6.20;;;3.69;;
66669;SDS011;53568;52.164;4.472;2022-12-07T05:27:55;6.43;;;3.85;;
66669;SDS011;53568;52.164;4.472;2022-12-07T05:30:22;6.09;;;3.63;;
66669;SDS011;53568;52.164;4.472;2022-12-07T05:32:49;6.20;;;3.73;;
66669;SDS011;53568;52.164;4.472;2022-12-07T05:35:14;5.77;;;3.49;;
66669;SDS011;53568;52.164;4.472;2022-12-07T05:37:40;5.48;;;3.31;;
66669;SDS011;53568;52.164;4.472;2022-12-07T05:40:06;5.31;;;3.18;;
66669;SDS011;53568;52.164;4.472;2022-12-07T05:42:39;5.97;;;3.57;;
66669;SDS011;53568;52.164;4.472;2022-12-07T05:45:05;5.64;;;3.39;;
66669;SDS011;53568;52.164;4.472;2022-12-07T05:47:31;5.84;;;3.50;;
66669;SDS011;53568;52.164;4.472;2022-12-07T05:50:00;5.45;;;3.24;;
66669;SDS011;53568;52.164;4.472;2022-12-07T05:52:26;4.96;;;2.95;;
66669;SDS011;53568;52.164;4.472;2022-12-07T05:54:52;5.47;;;3.25;;
66669;SDS011;53568;52.164;4.472;2022-12-07T05:57:18;5.48;;;3.23;;
66669;SDS011;53568;52.164;4.472;2022-12-07T05:59:44;5.47;;;3.23;;
66669;SDS011;53568;52.164;4.472;2022-12-07T06:02:10;5.43;;;3.21;;
66669;SDS011;53568;52.164;4.472;2022-12-07T06:04:39;5.47;;;3.26;;
66669;SDS011;53568;52.164;4.472;2022-12-07T06:07:07;5.37;;;3.20;;
66669;SDS011;53568;52.164;4.472;2022-12-07T06:09:34;5.57;;;3.29;;
66669;SDS011;53568;52.164;4.472;2022-12-07T06:12:00;5.27;;;3.11;;
66669;SDS011;53568;52.164;4.472;2022-12-07T06:14:44;5.41;;;3.18;;
66669;SDS011;53568;52.164;4.472;2022-12-07T06:17:10;5.86;;;3.40;;
66669;SDS011;53568;52.164;4.472;2022-12-07T06:19:37;5.95;;;3.49;;
66669;SDS011;53568;52.164;4.472;2022-12-07T06:22:03;5.32;;;3.17;;
66669;SDS011;53568;52.164;4.472;2022-12-07T06:24:30;4.81;;;2.88;;
66669;SDS011;53568;52.164;4.472;2022-12-07T06:26:56;5.42;;;3.26;;
66669;SDS011;53568;52.164;4.472;2022-12-07T06:29:22;3.86;;;2.33;;
66669;SDS011;53568;52.164;4.472;2022-12-07T06:31:48;4.36;;;2.62;;
66669;SDS011;53568;52.164;4.472;2022-12-07T06:34:15;4.16;;;2.52;;
66669;SDS011;53568;52.164;4.472;2022-12-07T06:36:43;4.70;;;2.86;;
66669;SDS011;53568;52.164;4.472;2022-12-07T06:39:09;3.49;;;2.13;;
66669;SDS011;53568;52.164;4.472;2022-12-07T06:41:36;3.66;;;2.20;;
66669;SDS011;53568;52.164;4.472;2022-12-07T06:44:03;3.39;;;2.05;;
66669;SDS011;53568;52.164;4.472;2022-12-07T06:46:29;3.58;;;2.18;;
66669;SDS011;53568;52.164;4.472;2022-12-07T06:48:55;3.87;;;2.36;;
66669;SDS011;53568;52.164;4.472;2022-12-07T06:51:20;3.87;;;2.35;;
66669;SDS011;53568;52.164;4.472;2022-12-07T06:53:46;3.93;;;2.40;;
66669;SDS011;53568;52.164;4.472;2022-12-07T06:56:11;3.99;;;2.44;;
66669;SDS011;53568;52.164;4.472;2022-12-07T06:58:36;4.51;;;2.79;;
66669;SDS011;53568;52.164;4.472;2022-12-07T07:01:02;4.54;;;2.89;;
66669;SDS011;53568;52.164;4.472;2022-12-07T07:03:28;4.43;;;2.90;;
66669;SDS011;53568;52.164;4.472;2022-12-07T07:05:53;3.97;;;2.65;;
66669;SDS011;53568;52.164;4.472;2022-12-07T07:08:19;3.94;;;2.68;;
66669;SDS011;53568;52.164;4.472;2022-12-07T07:10:47;4.53;;;3.11;;
66669;SDS011;53568;52.164;4.472;2022-12-07T07:13:13;5.18;;;3.53;;
66669;SDS011;53568;52.164;4.472;2022-12-07T07:15:38;4.98;;;3.40;;
66669;SDS011;53568;52.164;4.472;2022-12-07T07:18:04;4.23;;;2.91;;
66669;SDS011;53568;52.164;4.472;2022-12-07T07:20:30;3.98;;;2.73;;
66669;SDS011;53568;52.164;4.472;2022-12-07T07:22:55;3.58;;;2.45;;
66669;SDS011;53568;52.164;4.472;2022-12-07T07:25:21;3.53;;;2.37;;
66669;SDS011;53568;52.164;4.472;2022-12-07T07:27:47;3.93;;;2.56;;
66669;SDS011;53568;52.164;4.472;2022-12-07T07:30:12;3.79;;;2.44;;
66669;SDS011;53568;52.164;4.472;2022-12-07T07:32:38;3.39;;;2.15;;
66669;SDS011;53568;52.164;4.472;2022-12-07T07:35:04;3.47;;;2.19;;
66669;SDS011;53568;52.164;4.472;2022-12-07T07:37:30;3.44;;;2.16;;
66669;SDS011;53568;52.164;4.472;2022-12-07T07:39:55;3.83;;;2.39;;
66669;SDS011;53568;52.164;4.472;2022-12-07T07:42:21;3.78;;;2.31;;
66669;SDS011;53568;52.164;4.472;2022-12-07T07:44:47;3.66;;;2.23;;
66669;SDS011;53568;52.164;4.472;2022-12-07T07:47:12;4.22;;;2.55;;
66669;SDS011;53568;52.164;4.472;2022-12-07T07:49:38;3.72;;;2.24;;
66669;SDS011;53568;52.164;4.472;2022-12-07T07:52:05;3.90;;;2.35;;
66669;SDS011;53568;52.164;4.472;2022-12-07T07:54:31;5.08;;;3.06;;
66669;SDS011;53568;52.164;4.472;2022-12-07T07:56:57;5.10;;;3.12;;
66669;SDS011;53568;52.164;4.472;2022-12-07T07:59:22;4.58;;;2.83;;
66669;SDS011;53568;52.164;4.472;2022-12-07T08:01:48;3.91;;;2.49;;
66669;SDS011;53568;52.164;4.472;2022-12-07T08:04:14;3.14;;;2.04;;
66669;SDS011;53568;52.164;4.472;2022-12-07T08:06:39;2.68;;;1.76;;
66669;SDS011;53568;52.164;4.472;2022-12-07T08:09:07;2.56;;;1.68;;
66669;SDS011;53568;52.164;4.472;2022-12-07T08:11:33;2.64;;;1.69;;
66669;SDS011;53568;52.164;4.472;2022-12-07T08:13:59;2.70;;;1.71;;
66669;SDS011;53568;52.164;4.472;2022-12-07T08:16:25;2.63;;;1.66;;
66669;SDS011;53568;52.164;4.472;2022-12-07T08:18:51;2.50;;;1.54;;
66669;SDS011;53568;52.164;4.472;2022-12-07T08:21:16;2.74;;;1.68;;
66669;SDS011;53568;52.164;4.472;2022-12-07T08:23:41;2.32;;;1.42;;
66669;SDS011;53568;52.164;4.472;2022-12-07T08:26:09;2.25;;;1.38;;
66669;SDS011;53568;52.164;4.472;2022-12-07T08:28:37;1.96;;;1.23;;
66669;SDS011;53568;52.164;4.472;2022-12-07T08:31:04;1.89;;;1.17;;
66669;SDS011;53568;52.164;4.472;2022-12-07T08:33:32;1.70;;;1.05;;
66669;SDS011;53568;52.164;4.472;2022-12-07T08:36:02;1.70;;;1.05;;
66669;SDS011;53568;52.164;4.472;2022-12-07T08:38:36;1.81;;;1.14;;
66669;SDS011;53568;52.164;4.472;2022-12-07T08:41:03;2.11;;;1.34;;
66669;SDS011;53568;52.164;4.472;2022-12-07T08:43:29;2.02;;;1.29;;
66669;SDS011;53568;52.164;4.472;2022-12-07T08:48:46;2.58;;;1.68;;
66669;SDS011;53568;52.164;4.472;2022-12-07T08:51:18;2.58;;;1.69;;
66669;SDS011;53568;52.164;4.472;2022-12-07T08:53:46;3.09;;;2.04;;
66669;SDS011;53568;52.164;4.472;2022-12-07T08:56:12;2.89;;;1.94;;
66669;SDS011;53568;52.164;4.472;2022-12-07T08:58:38;3.25;;;2.19;;
66669;SDS011;53568;52.164;4.472;2022-12-07T09:01:04;3.02;;;2.07;;
66669;SDS011;53568;52.164;4.472;2022-12-07T09:03:30;3.15;;;2.18;;
66669;SDS011;53568;52.164;4.472;2022-12-07T09:05:57;3.41;;;2.37;;
66669;SDS011;53568;52.164;4.472;2022-12-07T09:08:26;3.24;;;2.26;;
66669;SDS011;53568;52.164;4.472;2022-12-07T09:10:57;3.21;;;2.25;;
66669;SDS011;53568;52.164;4.472;2022-12-07T09:13:23;3.57;;;2.49;;
66669;SDS011;53568;52.164;4.472;2022-12-07T09:15:48;3.60;;;2.53;;
66669;SDS011;53568;52.164;4.472;2022-12-07T09:18:14;3.47;;;2.45;;
66669;SDS011;53568;52.164;4.472;2022-12-07T09:20:39;3.20;;;2.34;;
66669;SDS011;53568;52.164;4.472;2022-12-07T09:23:05;2.87;;;2.11;;
66669;SDS011;53568;52.164;4.472;2022-12-07T09:25:32;2.67;;;1.95;;
66669;SDS011;53568;52.164;4.472;2022-12-07T09:27:58;2.84;;;2.01;;
66669;SDS011;53568;52.164;4.472;2022-12-07T09:30:24;2.91;;;2.05;;
66669;SDS011;53568;52.164;4.472;2022-12-07T09:32:55;3.41;;;2.38;;
66669;SDS011;53568;52.164;4.472;2022-12-07T09:35:22;3.41;;;2.31;;
66669;SDS011;53568;52.164;4.472;2022-12-07T09:37:49;3.63;;;2.43;;
66669;SDS011;53568;52.164;4.472;2022-12-07T09:40:15;3.77;;;2.54;;
66669;SDS011;53568;52.164;4.472;2022-12-07T09:42:45;4.03;;;2.67;;
66669;SDS011;53568;52.164;4.472;2022-12-07T09:45:16;4.01;;;2.69;;
66669;SDS011;53568;52.164;4.472;2022-12-07T09:47:59;3.98;;;2.67;;
66669;SDS011;53568;52.164;4.472;2022-12-07T09:50:26;4.06;;;2.72;;
66669;SDS011;53568;52.164;4.472;2022-12-07T09:52:54;3.81;;;2.54;;
66669;SDS011;53568;52.164;4.472;2022-12-07T09:55:47;4.24;;;2.74;;
66669;SDS011;53568;52.164;4.472;2022-12-07T09:58:17;4.19;;;2.66;;
66669;SDS011;53568;52.164;4.472;2022-12-07T10:03:53;3.74;;;2.41;;
66669;SDS011;53568;52.164;4.472;2022-12-07T10:06:23;3.63;;;2.35;;
66669;SDS011;53568;52.164;4.472;2022-12-07T10:08:49;3.72;;;2.39;;
66669;SDS011;53568;52.164;4.472;2022-12-07T10:11:15;4.20;;;2.66;;
66669;SDS011;53568;52.164;4.472;2022-12-07T10:13:42;4.13;;;2.62;;
66669;SDS011;53568;52.164;4.472;2022-12-07T10:18:49;4.56;;;2.96;;
66669;SDS011;53568;52.164;4.472;2022-12-07T10:21:16;4.02;;;2.61;;
66669;SDS011;53568;52.164;4.472;2022-12-07T10:24:13;3.88;;;2.51;;
66669;SDS011;53568;52.164;4.472;2022-12-07T10:29:16;3.57;;;2.23;;
66669;SDS011;53568;52.164;4.472;2022-12-07T10:31:47;4.28;;;2.63;;
66669;SDS011;53568;52.164;4.472;2022-12-07T10:34:31;3.63;;;2.21;;
66669;SDS011;53568;52.164;4.472;2022-12-07T10:39:43;4.20;;;2.57;;
66669;SDS011;53568;52.164;4.472;2022-12-07T10:42:22;3.27;;;2.02;;
66669;SDS011;53568;52.164;4.472;2022-12-07T10:44:50;3.99;;;2.45;;
66669;SDS011;53568;52.164;4.472;2022-12-07T10:47:44;4.38;;;2.68;;
66669;SDS011;53568;52.164;4.472;2022-12-07T10:53:10;3.89;;;2.40;;
66669;SDS011;53568;52.164;4.472;2022-12-07T10:58:36;5.28;;;3.30;;
66669;SDS011;53568;52.164;4.472;2022-12-07T11:04:03;3.57;;;2.23;;
66669;SDS011;53568;52.164;4.472;2022-12-07T11:19:45;4.02;;;2.53;;
66669;SDS011;53568;52.164;4.472;2022-12-07T11:22:45;4.23;;;2.66;;
66669;SDS011;53568;52.164;4.472;2022-12-07T11:28:29;3.62;;;2.27;;
66669;SDS011;53568;52.164;4.472;2022-12-07T11:31:29;3.52;;;2.25;;
66669;SDS011;53568;52.164;4.472;2022-12-07T11:36:47;2.99;;;1.95;;
66669;SDS011;53568;52.164;4.472;2022-12-07T11:39:23;3.30;;;2.10;;
66669;SDS011;53568;52.164;4.472;2022-12-07T11:41:52;3.04;;;1.96;;
66669;SDS011;53568;52.164;4.472;2022-12-07T11:47:22;3.62;;;2.33;;
66669;SDS011;53568;52.164;4.472;2022-12-07T11:50:19;3.35;;;2.14;;
66669;SDS011;53568;52.164;4.472;2022-12-07T11:53:14;3.37;;;2.17;;
66669;SDS011;53568;52.164;4.472;2022-12-07T12:03:45;3.08;;;2.01;;
66669;SDS011;53568;52.164;4.472;2022-12-07T12:06:14;3.10;;;1.99;;
66669;SDS011;53568;52.164;4.472;2022-12-07T12:08:47;3.21;;;2.03;;
66669;SDS011;53568;52.164;4.472;2022-12-07T12:11:36;3.57;;;2.23;;
66669;SDS011;53568;52.164;4.472;2022-12-07T12:14:34;3.85;;;2.37;;
66669;SDS011;53568;52.164;4.472;2022-12-07T12:22:33;3.63;;;2.31;;
66669;SDS011;53568;52.164;4.472;2022-12-07T12:25:07;3.37;;;2.12;;
66669;SDS011;53568;52.164;4.472;2022-12-07T12:28:00;3.37;;;2.12;;
66669;SDS011;53568;52.164;4.472;2022-12-07T12:33:06;3.17;;;2.01;;
66669;SDS011;53568;52.164;4.472;2022-12-07T12:35:50;3.31;;;2.11;;
66669;SDS011;53568;52.164;4.472;2022-12-07T12:51:42;3.62;;;2.27;;
66669;SDS011;53568;52.164;4.472;2022-12-07T12:54:21;3.67;;;2.29;;
66669;SDS011;53568;52.164;4.472;2022-12-07T13:02:21;3.40;;;2.16;;
66669;SDS011;53568;52.164;4.472;2022-12-07T13:05:02;3.36;;;2.14;;
66669;SDS011;53568;52.164;4.472;2022-12-07T13:13:00;3.69;;;2.39;;
66669;SDS011;53568;52.164;4.472;2022-12-07T13:31:46;2.75;;;1.80;;
66669;SDS011;53568;52.164;4.472;2022-12-07T13:37:08;3.02;;;1.88;;
66669;SDS011;53568;52.164;4.472;2022-12-07T13:39:52;2.65;;;1.65;;
66669;SDS011;53568;52.164;4.472;2022-12-07T13:44:47;2.37;;;1.50;;
66669;SDS011;53568;52.164;4.472;2022-12-07T13:47:20;2.07;;;1.30;;
66669;SDS011;53568;52.164;4.472;2022-12-07T13:49:55;2.06;;;1.31;;
66669;SDS011;53568;52.164;4.472;2022-12-07T13:52:23;2.14;;;1.36;;
66669;SDS011;53568;52.164;4.472;2022-12-07T13:57:27;2.50;;;1.60;;
66669;SDS011;53568;52.164;4.472;2022-12-07T13:59:56;2.19;;;1.42;;
66669;SDS011;53568;52.164;4.472;2022-12-07T14:04:51;2.17;;;1.46;;
66669;SDS011;53568;52.164;4.472;2022-12-07T14:07:31;2.36;;;1.60;;
66669;SDS011;53568;52.164;4.472;2022-12-07T14:10:00;2.30;;;1.57;;
66669;SDS011;53568;52.164;4.472;2022-12-07T14:12:28;2.49;;;1.70;;
66669;SDS011;53568;52.164;4.472;2022-12-07T14:14:55;2.50;;;1.69;;
66669;SDS011;53568;52.164;4.472;2022-12-07T14:17:24;2.67;;;1.81;;
66669;SDS011;53568;52.164;4.472;2022-12-07T14:19:52;2.70;;;1.83;;
66669;SDS011;53568;52.164;4.472;2022-12-07T14:25:21;2.88;;;1.97;;
66669;SDS011;53568;52.164;4.472;2022-12-07T14:27:58;2.96;;;2.03;;
66669;SDS011;53568;52.164;4.472;2022-12-07T14:30:30;2.58;;;1.79;;
66669;SDS011;53568;52.164;4.472;2022-12-07T14:33:02;2.95;;;2.02;;
66669;SDS011;53568;52.164;4.472;2022-12-07T14:35:33;3.25;;;2.22;;
66669;SDS011;53568;52.164;4.472;2022-12-07T14:37:58;3.25;;;2.21;;
66669;SDS011;53568;52.164;4.472;2022-12-07T14:40:26;3.33;;;2.25;;
66669;SDS011;53568;52.164;4.472;2022-12-07T14:42:57;3.43;;;2.31;;
66669;SDS011;53568;52.164;4.472;2022-12-07T14:45:28;3.15;;;2.12;;
66669;SDS011;53568;52.164;4.472;2022-12-07T14:47:54;2.89;;;1.96;;
66669;SDS011;53568;52.164;4.472;2022-12-07T14:50:19;2.76;;;1.89;;
66669;SDS011;53568;52.164;4.472;2022-12-07T14:52:56;2.83;;;1.92;;
66669;SDS011;53568;52.164;4.472;2022-12-07T14:55:30;2.93;;;2.00;;
66669;SDS011;53568;52.164;4.472;2022-12-07T14:57:56;2.99;;;2.00;;
66669;SDS011;53568;52.164;4.472;2022-12-07T15:00:24;2.96;;;1.96;;
66669;SDS011;53568;52.164;4.472;2022-12-07T15:02:52;2.25;;;1.50;;
66669;SDS011;53568;52.164;4.472;2022-12-07T15:05:18;2.99;;;1.96;;
66669;SDS011;53568;52.164;4.472;2022-12-07T15:07:44;2.94;;;1.92;;
66669;SDS011;53568;52.164;4.472;2022-12-07T15:10:18;2.94;;;1.94;;
66669;SDS011;53568;52.164;4.472;2022-12-07T15:12:55;2.77;;;1.85;;
66669;SDS011;53568;52.164;4.472;2022-12-07T15:15:41;3.38;;;2.19;;
66669;SDS011;53568;52.164;4.472;2022-12-07T15:18:07;3.65;;;2.35;;
66669;SDS011;53568;52.164;4.472;2022-12-07T15:20:33;3.55;;;2.30;;
66669;SDS011;53568;52.164;4.472;2022-12-07T15:22:58;3.77;;;2.44;;
66669;SDS011;53568;52.164;4.472;2022-12-07T15:25:24;3.95;;;2.57;;
66669;SDS011;53568;52.164;4.472;2022-12-07T15:27:49;4.27;;;2.77;;
66669;SDS011;53568;52.164;4.472;2022-12-07T15:30:15;4.33;;;2.80;;
66669;SDS011;53568;52.164;4.472;2022-12-07T15:32:40;4.26;;;2.74;;
66669;SDS011;53568;52.164;4.472;2022-12-07T15:35:06;4.18;;;2.67;;
66669;SDS011;53568;52.164;4.472;2022-12-07T15:37:32;4.04;;;2.59;;
66669;SDS011;53568;52.164;4.472;2022-12-07T15:39:57;3.49;;;2.24;;
66669;SDS011;53568;52.164;4.472;2022-12-07T15:42:23;3.07;;;2.01;;
66669;SDS011;53568;52.164;4.472;2022-12-07T15:44:48;3.38;;;2.23;;
66669;SDS011;53568;52.164;4.472;2022-12-07T15:47:34;3.99;;;2.61;;
66669;SDS011;53568;52.164;4.472;2022-12-07T15:50:03;3.94;;;2.59;;
66669;SDS011;53568;52.164;4.472;2022-12-07T15:52:31;3.96;;;2.63;;
66669;SDS011;53568;52.164;4.472;2022-12-07T15:54:58;3.56;;;2.41;;
66669;SDS011;53568;52.164;4.472;2022-12-07T15:57:25;3.69;;;2.47;;
66669;SDS011;53568;52.164;4.472;2022-12-07T15:59:51;3.49;;;2.33;;
66669;SDS011;53568;52.164;4.472;2022-12-07T16:02:17;3.64;;;2.40;;
66669;SDS011;53568;52.164;4.472;2022-12-07T16:04:42;3.60;;;2.33;;
66669;SDS011;53568;52.164;4.472;2022-12-07T16:07:08;4.08;;;2.55;;
66669;SDS011;53568;52.164;4.472;2022-12-07T16:09:33;3.60;;;2.24;;
66669;SDS011;53568;52.164;4.472;2022-12-07T16:11:59;4.50;;;2.82;;
66669;SDS011;53568;52.164;4.472;2022-12-07T16:14:24;4.23;;;2.70;;
66669;SDS011;53568;52.164;4.472;2022-12-07T16:16:50;3.89;;;2.49;;
66669;SDS011;53568;52.164;4.472;2022-12-07T16:19:15;4.28;;;2.76;;
66669;SDS011;53568;52.164;4.472;2022-12-07T16:21:41;4.38;;;2.87;;
66669;SDS011;53568;52.164;4.472;2022-12-07T16:24:07;4.01;;;2.65;;
66669;SDS011;53568;52.164;4.472;2022-12-07T16:26:33;4.72;;;3.13;;
66669;SDS011;53568;52.164;4.472;2022-12-07T16:28:59;4.27;;;2.85;;
66669;SDS011;53568;52.164;4.472;2022-12-07T16:31:25;4.88;;;3.36;;
66669;SDS011;53568;52.164;4.472;2022-12-07T16:33:53;4.32;;;3.05;;
66669;SDS011;53568;52.164;4.472;2022-12-07T16:36:20;4.39;;;3.10;;
66669;SDS011;53568;52.164;4.472;2022-12-07T16:38:49;4.05;;;2.84;;
66669;SDS011;53568;52.164;4.472;2022-12-07T16:41:15;4.30;;;3.08;;
66669;SDS011;53568;52.164;4.472;2022-12-07T16:43:40;3.67;;;2.63;;
66669;SDS011;53568;52.164;4.472;2022-12-07T16:46:06;3.69;;;2.58;;
66669;SDS011;53568;52.164;4.472;2022-12-07T16:48:34;3.68;;;2.53;;
66669;SDS011;53568;52.164;4.472;2022-12-07T16:51:05;4.27;;;2.87;;
66669;SDS011;53568;52.164;4.472;2022-12-07T16:53:33;4.46;;;2.97;;
66669;SDS011;53568;52.164;4.472;2022-12-07T16:56:00;4.99;;;3.29;;
66669;SDS011;53568;52.164;4.472;2022-12-07T16:58:25;4.53;;;3.04;;
66669;SDS011;53568;52.164;4.472;2022-12-07T17:00:51;4.02;;;2.73;;
66669;SDS011;53568;52.164;4.472;2022-12-07T17:03:17;3.76;;;2.62;;
66669;SDS011;53568;52.164;4.472;2022-12-07T17:05:43;3.39;;;2.36;;
66669;SDS011;53568;52.164;4.472;2022-12-07T17:08:10;2.88;;;2.00;;
66669;SDS011;53568;52.164;4.472;2022-12-07T17:10:38;3.03;;;2.06;;
66669;SDS011;53568;52.164;4.472;2022-12-07T17:13:06;2.94;;;1.99;;
66669;SDS011;53568;52.164;4.472;2022-12-07T17:16:01;3.21;;;2.10;;
66669;SDS011;53568;52.164;4.472;2022-12-07T17:18:30;3.21;;;2.07;;
66669;SDS011;53568;52.164;4.472;2022-12-07T17:21:02;3.37;;;2.17;;
66669;SDS011;53568;52.164;4.472;2022-12-07T17:23:30;3.20;;;2.06;;
66669;SDS011;53568;52.164;4.472;2022-12-07T17:25:56;3.59;;;2.32;;
66669;SDS011;53568;52.164;4.472;2022-12-07T17:28:32;3.84;;;2.53;;
66669;SDS011;53568;52.164;4.472;2022-12-07T17:30:59;2.98;;;1.95;;